Pittsburgh, Pennsylvania
Traffic Map
Current Weather Conditions
Pittsburgh, Pennsylvania
Broken Clouds
Broken Clouds
58°
Feels Like: 58°
Wind Chill: 58° Ceiling: 10000
Heat Index: 58° Visibility: 8mi
Dew Point: 55° Wind: 6mph
Humidity: 90% Direction: 180° (S)
Pressure: 30.06in Gusts: 0mph
Raw Report DataKAGC 310453Z AUTO 18005KT 8SM SCT055 SCT085 BKN100 14/13 A3006 RMK AO2 SLP180 T01440128 402280111 TSNO
Traffic Incident Summary
Active as of:
Severity:
Category:
InformationThere was an issue retrieving the traffic information for this location. Please try a different location or try again shortly.
Advertisements
Track Severe Weather on mobile